pic not found

MONITORING PENGADAAN SECARA ELEKTRONIK

Bagian Pengadaan Barang dan Jasa
Sekretariat Daerah Kabupaten Magetan
Tahun Anggaran2025



MONITORING NON TENDER

Informasi

1. Data Non Tender merupakan Paket Non Tender dengan status "Paket Sudah Selesai" yang diambil dari SPSE .
2. Monitoring Non Tender digunakan untuk memastikan PPK telah menginputkan E-kontrak pada SPSE dan Penilaian Kinerja Penyedia pada SIKaP
3. Status Penilaian Kinerja = "Terisi" jika PPK telah melakukan penilaian kinerja pada aplikasi SIKaP.


Tim LPSE Kabupaten Magetan Last Update    2025-12-22
Showing 5,101-5,120 of 9,716 items.
#Nama SatkerKd NontenderKd RupNama PaketPaguHpsNilai KontrakSumber DanaTanggal Selesai NontenderNama PenyediaStatus Penilaian Kinerja
 
5101DINAS PEKERJAAN UMUM DAN PENATAAN RUANG891825539676701Supervisi/ Pengawasan Rehabilitasi Jalan Paket 1024,500,000022,644,000APBD2023-07-24 16:00:00CV.MUFIIDESIGN CONSULTAN(not set)
5102DINAS PEKERJAAN UMUM DAN PENATAAN RUANG887525539676695Supervisi/ Pengawasan Rehabilitasi Jalan Paket 828,500,000014,152,500APBD2023-07-24 16:00:00KIAND KONSULTAN(not set)
5103DINAS PEKERJAAN UMUM DAN PENATAAN RUANG916325539676325Supervisi / Pengawasan Peningkatan Jalan Paket 430,000,000029,470,500APBD2023-07-21 16:00:00CV. BERDIKARI BERKAH(not set)
5104DINAS PEKERJAAN UMUM DAN PENATAAN RUANG1038225539677257Peningkatan Jalan Sidokerto - Sumberdodol168,000,0000165,789,402APBD2023-07-21 16:00:00Arista Jaya(not set)
5105DINAS PEKERJAAN UMUM DAN PENATAAN RUANG909825539677262Supervisi/ Pengawasan Peningkatan Jalan Paket 228,000,000027,489,150APBD2023-07-21 16:00:00CV. CAKRA TIRTA(not set)
5106DINAS PEKERJAAN UMUM DAN PENATAAN RUANG987425539676659Rehabilitasi Jalan Mantren-Banjarejo170,000,0000168,666,153APBD2023-07-21 16:00:00CV BERKAH KUSUMO(not set)
5107DINAS PEKERJAAN UMUM DAN PENATAAN RUANG895125539676692Supervisi/ Pengawasan Rehabilitasi Jalan Paket 1430,500,000029,797,950APBD2023-07-21 16:00:00CV.GUNA KARYA(not set)
5108DINAS PEKERJAAN UMUM DAN PENATAAN RUANG1039725539676665Rehabilitasi Jalan Kentangan - Kembangan170,000,0000166,660,070APBD2023-07-21 16:00:00PUTRA DEWA(not set)
5109DINAS PEKERJAAN UMUM DAN PENATAAN RUANG910725539677265Supervisi/ Pengawasan Peningkatan Jalan Paket 422,500,000020,979,000APBD2023-07-21 16:00:00CV RESWARA(not set)
5110DINAS PEKERJAAN UMUM DAN PENATAAN RUANG1059425539676326Peningkatan Jalan Kedungpanji - Palur170,000,0000159,430,245APBD2023-07-21 16:00:00CV. JANITRA BHIRAWA(not set)
5111DINAS PEKERJAAN UMUM DAN PENATAAN RUANG1031825539676666Rehabilitasi Jalan Pelem - Gebyog170,000,0000168,502,878APBD2023-07-21 16:00:00CV. BLUMBANG ASRI(not set)
5112DINAS PEKERJAAN UMUM DAN PENATAAN RUANG1122425539677259Peningkatan Jalan Turus - Jurug168,000,0000155,248,311APBD2023-07-21 16:00:00BAMA PERKASA(not set)
5113DINAS PEKERJAAN UMUM DAN PENATAAN RUANG1011525539676660Rehabilitasi Jalan Panekan-Jabung170,000,0000158,552,093APBD2023-07-21 16:00:00CV. GATI MULYA(not set)
5114DINAS PEKERJAAN UMUM DAN PENATAAN RUANG1087725539677255Peningkatan Jalan Tinap - Jongke168,000,0000158,538,573APBD2023-07-21 16:00:00TECLA(not set)
5115DINAS PEKERJAAN UMUM DAN PENATAAN RUANG977125539677248Peningkatan Jalan Ringinagung - Bangsri170,000,0000162,869,725APBD2023-07-21 16:00:00NASAMU(not set)
5116DINAS PEKERJAAN UMUM DAN PENATAAN RUANG1077925539676342Peningkatan Jalan Sobontoro - Kuwon170,000,0000167,736,352APBD2023-07-21 16:00:00bakti pertiwi(not set)
5117DINAS PEKERJAAN UMUM DAN PENATAAN RUANG1087825539676633Rehabilitasi Jalan Setren - Tinap ruas jalan DPU PR 141 ke. Bendo - kec.sukomoro200,000,0000188,386,574APBD2023-07-21 16:00:00CV. TEMBAGA PURA(not set)
5118DINAS PEKERJAAN UMUM DAN PENATAAN RUANG1059525542841083Peningkatan Jalan Nglopang - Sayutan170,000,0000156,403,544APBD2023-07-21 16:00:00CV. MAITAKARYA(not set)
5119DINAS PEKERJAAN UMUM DAN PENATAAN RUANG892725539676693Supervisi/ Pengawasan Rehabilitasi Jalan Paket 1230,500,000030,142,050APBD2023-07-21 16:00:00CV WAHANA TEHNICA(not set)
5120DINAS PEKERJAAN UMUM DAN PENATAAN RUANG989925539676650Rehabilitasi Jalan Bangunasri - Gunungan170,000,0000167,381,435APBD2023-07-21 16:00:00CV. Bandung Jaya(not set)

MONITORING TENDER

Informasi

1. Data Tender merupakan Paket Tender dengan status "Paket Sudah Selesai" yang diambil dari SPSE .
2. Monitoring Tender digunakan untuk memastikan PPK telah menginputkan E-kontrak pada SPSE dan Penilaian Kinerja Penyedia pada SIKaP
3. Status Penilaian Kinerja = "Terisi" jika PPK telah melakukan penilaian kinerja pada aplikasi SIKaP.


Tim LPSE Kabupaten Magetan Last Update    2025-12-22
Showing 1-20 of 89 items.
#Kd TenderTahun AnggaranNama SatkerKd RupNama PaketPaguHpsSumber DanaNilai KontrakNama PenyediaTgl Penetapan PemenangStatus Penilaian Kinerja
1100868530002025DINAS PEKERJAAN UMUM DAN PENATAAN RUANG54689775Pembangunan Embung Sidowayah650000000649141000APBD619648601WIJAYA KARYA SEJATI2025-10-10 17:00:00(not set)
2100868510002025DINAS PEKERJAAN UMUM DAN PENATAAN RUANG54689777Pembangunan Embung Kawedanan, Terung500000000497008000APBD472778577CV. Surya Galaxy2025-10-10 17:00:00(not set)
3100850540002025DINAS PEKERJAAN UMUM DAN PENATAAN RUANG60291185Pemeliharaan Berkala Jalan Tebon-Stasiun Magetan13150000001307940000APBDP(not set)(not set)2025-10-03 11:30:00(not set)
4100815940002025DINAS PEKERJAAN UMUM DAN PENATAAN RUANG60296716Pembangunan Sumur Air Tanah Dalam SDKMG Desa Tladan dan Desa Botok, Beserta Peralatan dan Pemasangan Pompa13000000001300000000APBD1268000000CV. BUDI LUHUR2025-10-01 14:00:00(not set)
5100804910002025DINAS PEKERJAAN UMUM DAN PENATAAN RUANG60296695Pembangunan Sumur Air Tanah Dalam SDKMG Desa Tapen dan Desa Tambakmas, Beserta Peralatan dan Pemasangan Pompa11000000001100000000APBD1075000000CV. ROHMAT2025-10-01 14:00:00(not set)
6100800490002025DINAS PEKERJAAN UMUM DAN PENATAAN RUANG60461662Rehabilitasi Jaringan Irigasi DI Sadon560100000555348000APBD444278400PURWOTO2025-09-29 16:00:00(not set)
7100233980002025DINAS KESEHATAN54938336Jasa Konsultansi Pengawasan Pembangunan Gedung Rumah Sakit (Puskesmas Panekan)300000000299977500APBD240481500PT. PILAREMPAT CONSULTAN2025-05-28 16:00:00(not set)
8120832552024DINAS PENDIDIKAN, KEPEMUDAAN DAN OLAHRAGA47581846Jasa Konsultansi Pengawasan Pembangunan Sirkuit Kabupaten Magetan350157300349999983APBD317922038PT. SKALA PILAR LIMA2024-07-30 15:30:00(not set)
9120822552024BADAN PERENCANAAN PEMBANGUNAN, PENELITIAN DAN PENGEMBANGAN DAERAH51431929Jasa Konsultansi Mitigasi Perubahan Iklim Melalui Identifikasi Karbon200000000198168300APBD166722000PT TOTAL CIPTA PERSADA2024-07-25 16:00:00(not set)
10109922552023DINAS PEKERJAAN UMUM DAN PENATAAN RUANG44138092Pemeliharaan Berkala Jalan Genengan - Takeran18000000001791317000APBD(not set)(not set)2023-11-10 14:30:00(not set)
11109842552023KECAMATAN MAOSPATI40341941BELANJA MODAL BANGUNAN GEDUNG TEMPAT KERJA LAINNYA PEMBANGUNAN LANJUTAN GEDUNG KEBUDAYAAN240000000237931000APBD190344800CV. VAMROZ BINTANG PRATAMA2023-10-11 14:30:00(not set)
12109512552023DINAS KESEHATAN43956365Pembangunan Puskesmas Pembantu Ngelang600000000447418000APBD357934400SALSA MANDIRI2023-09-22 16:30:00(not set)
13109722552023DINAS PENDIDIKAN, KEPEMUDAAN DAN OLAHRAGA43870656Jasa Konsultansi Perencanaan dan Penyusunan Masterplan Pembangunan Sirkuit Kabupaten Magetan800000000776178600APBD776056500CV. CIPTA PURNAMA MANDIRI2023-09-21 19:00:00(not set)
14108652552023DINAS PENDIDIKAN, KEPEMUDAAN DAN OLAHRAGA42710723Rehabilitasi Ruang Kelas SMPN 1 Kawedanan546000000543734000APBD434987200ESTETIKA CV2023-09-15 15:00:00(not set)
15108662552023DINAS PENDIDIKAN, KEPEMUDAAN DAN OLAHRAGA42708925Rehabilitasi Ruang Kelas SMPN 1 Nguntoronadi700000000697732000APBD558185600CV.DEA KONTRAKTOR2023-09-15 15:00:00(not set)
16108672552023DINAS PENDIDIKAN, KEPEMUDAAN DAN OLAHRAGA42710780Rehabilitasi Ruang Kelas SMPN 1 Plaosan500000000499724000APBD399779200ESTETIKA CV2023-09-08 15:00:00(not set)
17108682552023DINAS PENDIDIKAN, KEPEMUDAAN DAN OLAHRAGA42710943Rehabilitasi Ruang Kelas SMPN 4 Magetan700000000698736000APBD558988800CV. Jalu Mampang2023-09-08 15:00:00(not set)
18109702552023DINAS PETERNAKAN DAN PERIKANAN40159675Pembangunan Konstruksi KSL Lanjutan1100000000904700000APBD741379925CV KRISNA DWI KARYA2023-08-29 17:00:00(not set)
19109502552023DINAS PEKERJAAN UMUM DAN PENATAAN RUANG43049995Pembangunan Plaza Ndoyo12500000001249640000APBD1083394356CV. BUDI LUHUR2023-08-23 15:15:00(not set)
20109622552023DINAS PEKERJAAN UMUM DAN PENATAAN RUANG39676632Rehabilitasi Jalan Karas-Kuwon452000000445467000APBD356373600SALSA MANDIRI2023-08-15 16:30:00(not set)